Time;durP1;ratioP1;P1;durP2;ratioP2;P2;SDS_P1;SDS_P2;PMS_P1;PMS_P2;Temp;Humidity;BMP_temperature;BMP_pressure;BME280_temperature;BME280_humidity;BME280_pressure;Samples;Min_cycle;Max_cycle;Signal;HPM_P1;HPM_P2
2022/05/19 00:00:36;;;;;;;32.67;20.05;;;19.00;99.90;;;;;;5092607;28;20086;-67
2022/05/19 00:03:02;;;;;;;37.42;21.27;;;19.00;99.90;;;;;;5092933;28;20050;-67
2022/05/19 00:05:27;;;;;;;36.38;21.05;;;19.00;99.90;;;;;;5093022;28;20040;-67
2022/05/19 00:07:53;;;;;;;31.45;19.15;;;18.90;99.90;;;;;;5092772;28;20047;-67
2022/05/19 00:10:19;;;;;;;32.53;19.45;;;18.80;99.90;;;;;;5092391;28;20123;-67
2022/05/19 00:12:44;;;;;;;36.72;19.80;;;18.90;99.90;;;;;;5092941;28;20040;-67
2022/05/19 00:15:12;;;;;;;35.20;21.77;;;19.00;99.90;;;;;;5092706;28;20416;-67
2022/05/19 00:17:38;;;;;;;38.22;21.58;;;19.00;99.90;;;;;;5074387;28;20480;-67
2022/05/19 00:20:04;;;;;;;39.40;22.65;;;18.90;99.90;;;;;;5092129;28;20032;-67
2022/05/19 00:22:30;;;;;;;38.20;24.02;;;18.90;99.90;;;;;;5092714;28;20043;-67
2022/05/19 00:24:55;;;;;;;38.83;22.60;;;18.80;99.90;;;;;;5092567;28;20040;-67
2022/05/19 00:27:21;;;;;;;34.97;22.55;;;18.70;99.90;;;;;;5092495;28;20048;-67
2022/05/19 00:29:46;;;;;;;33.05;21.15;;;18.60;99.90;;;;;;5092008;28;20089;-66
2022/05/19 00:32:12;;;;;;;34.55;22.70;;;18.60;99.90;;;;;;5092886;28;20036;-67
2022/05/19 00:34:37;;;;;;;36.60;22.67;;;18.50;99.90;;;;;;5092972;28;20113;-68
2022/05/19 00:37:03;;;;;;;36.78;23.80;;;18.50;99.90;;;;;;5092342;28;20457;-67
2022/05/19 00:39:33;;;;;;;37.58;24.33;;;18.40;99.90;;;;;;5092248;28;20043;-67
2022/05/19 00:44:43;;;;;;;36.22;23.55;;;18.40;99.90;;;;;;5092392;28;20044;-67
2022/05/19 00:47:23;;;;;;;42.65;24.83;;;18.30;99.90;;;;;;5091396;28;20044;-67
2022/05/19 00:49:50;;;;;;;38.90;26.30;;;18.20;99.90;;;;;;5073745;28;20075;-67
2022/05/19 00:52:29;;;;;;;37.25;25.45;;;18.10;99.90;;;;;;5092623;28;20396;-67
2022/05/19 00:55:04;;;;;;;44.05;25.92;;;18.10;99.90;;;;;;5092523;28;20115;-66
2022/05/19 00:57:32;;;;;;;41.53;26.13;;;18.00;99.90;;;;;;5092072;28;20036;-67
2022/05/19 01:00:05;;;;;;;38.83;25.92;;;18.10;99.90;;;;;;5090223;28;20189;-67
2022/05/19 01:02:37;;;;;;;40.60;26.90;;;18.10;99.90;;;;;;5091894;28;20055;-67
2022/05/19 01:05:10;;;;;;;;;;;18.10;99.90;;;;;;5092355;28;20121;-67
2022/05/19 01:07:40;;;;;;;;;;;18.10;99.90;;;;;;5092253;28;19916;-67
2022/05/19 01:10:06;;;;;;;40.63;25.20;;;18.10;99.90;;;;;;5089756;28;20388;-67
2022/05/19 01:12:33;;;;;;;45.30;26.00;;;18.20;99.90;;;;;;5091729;28;20132;-67
2022/05/19 01:15:00;;;;;;;37.92;26.75;;;18.20;99.90;;;;;;5091657;28;20040;-67
2022/05/19 01:17:26;;;;;;;43.55;26.35;;;18.20;99.90;;;;;;5091625;28;20044;-66
2022/05/19 01:19:58;;;;;;;41.92;25.95;;;18.20;99.90;;;;;;5091140;28;20083;-67
2022/05/19 01:22:42;;;;;;;38.83;27.77;;;18.20;99.90;;;;;;5091344;28;20510;-67
2022/05/19 01:25:38;;;;;;;40.25;28.13;;;18.10;99.90;;;;;;5091295;28;20543;-67
2022/05/19 01:28:05;;;;;;;49.00;30.10;;;18.10;99.90;;;;;;5090184;28;20063;-67
2022/05/19 01:30:31;;;;;;;42.30;29.63;;;18.20;99.90;;;;;;5090928;28;20048;-67
2022/05/19 01:32:57;;;;;;;48.65;30.25;;;18.20;99.90;;;;;;5091212;28;20040;-67
2022/05/19 01:35:22;;;;;;;42.92;29.63;;;18.10;99.90;;;;;;5091298;28;20115;-67
2022/05/19 01:37:49;;;;;;;45.85;30.55;;;18.10;99.90;;;;;;5090137;28;20536;-67
2022/05/19 01:40:39;;;;;;;48.10;31.77;;;18.10;99.90;;;;;;5090917;28;20040;-67
2022/05/19 01:43:21;;;;;;;45.83;31.27;;;18.00;99.90;;;;;;5091170;28;20036;-67
2022/05/19 01:46:09;;;;;;;44.88;30.35;;;18.00;99.90;;;;;;5091021;28;20496;-67
2022/05/19 01:48:45;;;;;;;53.50;31.35;;;18.00;99.90;;;;;;5090852;28;20048;-66
2022/05/19 01:51:26;;;;;;;43.42;30.65;;;18.00;99.90;;;;;;5090878;28;20549;-66
2022/05/19 01:54:04;;;;;;;53.85;32.25;;;17.90;99.90;;;;;;5090760;28;20068;-67
2022/05/19 01:56:38;;;;;;;48.40;31.98;;;17.90;99.90;;;;;;5091083;28;20127;-67
2022/05/19 01:59:10;;;;;;;49.63;32.13;;;17.90;99.90;;;;;;5090350;28;20078;-67
2022/05/19 02:01:35;;;;;;;51.33;32.67;;;17.90;99.90;;;;;;5091018;28;20075;-67
2022/05/19 02:04:16;;;;;;;53.40;33.85;;;17.80;99.90;;;;;;5090813;28;20063;-67
2022/05/19 02:06:49;;;;;;;46.50;31.95;;;17.70;99.90;;;;;;5091019;28;20047;-66
2022/05/19 02:09:21;;;;;;;47.45;31.85;;;17.70;99.90;;;;;;5090591;28;20101;-67
2022/05/19 02:11:52;;;;;;;44.67;31.40;;;17.70;99.90;;;;;;5090718;28;20555;-66
2022/05/19 02:14:27;;;;;;;50.85;30.48;;;17.60;99.90;;;;;;5090926;28;20408;-66
2022/05/19 02:16:54;;;;;;;50.53;31.58;;;17.60;99.90;;;;;;5090713;28;20040;-67
2022/05/19 02:19:28;;;;;;;46.85;31.52;;;17.60;99.90;;;;;;5089254;28;20392;-67
2022/05/19 02:21:55;;;;;;;58.60;33.38;;;17.60;99.90;;;;;;5090908;28;20040;-67
2022/05/19 02:24:24;;;;;;;49.17;31.70;;;17.70;99.90;;;;;;5089407;28;20044;-67
2022/05/19 02:26:50;;;;;;;52.28;32.70;;;17.60;99.90;;;;;;5090753;28;20033;-67
2022/05/19 02:29:22;;;;;;;49.72;31.90;;;17.60;99.90;;;;;;5090305;28;20039;-67
2022/05/19 02:31:49;;;;;;;46.22;32.17;;;17.60;99.90;;;;;;5090878;28;20170;-67
2022/05/19 02:34:15;;;;;;;48.97;31.95;;;17.50;99.90;;;;;;5090793;28;20051;-67
2022/05/19 02:36:41;;;;;;;46.53;31.67;;;17.60;99.90;;;;;;5090600;28;20036;-67
2022/05/19 02:39:07;;;;;;;51.25;33.08;;;17.60;99.90;;;;;;5088809;28;20047;-67
2022/05/19 02:41:33;;;;;;;45.60;30.63;;;17.60;99.90;;;;;;5090574;28;20048;-67
2022/05/19 02:43:59;;;;;;;48.80;30.77;;;17.50;99.90;;;;;;5090283;28;20044;-67
2022/05/19 02:46:24;;;;;;;44.33;30.42;;;17.50;99.90;;;;;;5090632;28;20071;-67
2022/05/19 02:48:50;;;;;;;52.70;32.90;;;17.50;99.90;;;;;;5090088;28;20075;-67
2022/05/19 02:51:15;;;;;;;47.25;32.50;;;17.50;99.90;;;;;;5090329;28;20036;-67
2022/05/19 02:53:41;;;;;;;53.03;34.03;;;17.60;99.90;;;;;;5090377;28;20032;-67
2022/05/19 02:56:07;;;;;;;45.75;30.65;;;17.50;99.90;;;;;;5090313;28;20059;-67
2022/05/19 02:58:32;;;;;;;49.88;32.53;;;17.50;99.90;;;;;;5089743;28;20047;-67
2022/05/19 03:00:58;;;;;;;50.13;32.88;;;17.50;99.90;;;;;;5090222;28;20097;-67
2022/05/19 03:03:24;;;;;;;48.13;31.80;;;17.50;99.90;;;;;;5089076;28;20468;-67
2022/05/19 03:05:49;;;;;;;52.97;33.00;;;17.50;99.90;;;;;;5090266;28;20689;-67
2022/05/19 03:08:15;;;;;;;53.30;33.78;;;17.60;99.90;;;;;;5090327;28;20404;-66
2022/05/19 03:10:43;;;;;;;51.97;33.28;;;17.50;99.90;;;;;;5091875;28;20048;-67
2022/05/19 03:13:18;;;;;;;47.63;32.25;;;17.50;99.90;;;;;;5093911;28;20040;-67
2022/05/19 03:15:43;;;;;;;47.95;33.38;;;17.60;99.90;;;;;;5094033;28;20032;-67
2022/05/19 03:18:09;;;;;;;50.97;32.92;;;17.60;99.90;;;;;;5093941;28;20036;-66
2022/05/19 03:20:35;;;;;;;47.95;32.65;;;17.60;99.90;;;;;;5093539;28;20577;-67
2022/05/19 03:23:00;;;;;;;50.13;33.35;;;17.60;99.90;;;;;;5093676;28;20036;-67
2022/05/19 03:25:26;;;;;;;57.30;34.08;;;17.60;99.90;;;;;;5093612;28;20449;-67
2022/05/19 03:27:51;;;;;;;51.65;32.67;;;17.60;99.90;;;;;;5093796;28;20043;-67
2022/05/19 03:30:17;;;;;;;51.95;32.85;;;17.60;99.90;;;;;;5074962;28;20055;-66
2022/05/19 03:32:43;;;;;;;50.45;32.15;;;17.60;99.90;;;;;;5093420;28;20032;-67
2022/05/19 03:35:11;;;;;;;51.42;34.90;;;17.60;99.90;;;;;;5092138;28;20112;-67
2022/05/19 03:37:37;;;;;;;50.60;33.95;;;17.60;99.90;;;;;;5093277;28;20044;-67
2022/05/19 03:40:04;;;;;;;50.33;33.60;;;17.60;99.90;;;;;;5089933;28;20444;-67
2022/05/19 03:42:29;;;;;;;46.22;33.95;;;17.60;99.90;;;;;;5091166;28;20213;-67
2022/05/19 03:44:55;;;;;;;53.35;35.13;;;17.60;99.90;;;;;;5092032;28;20043;-67
2022/05/19 03:47:20;;;;;;;50.35;35.00;;;17.50;99.90;;;;;;5092835;28;20075;-67
2022/05/19 03:49:46;;;;;;;59.55;35.88;;;17.50;99.90;;;;;;5090346;28;20043;-67
2022/05/19 03:52:12;;;;;;;50.35;34.70;;;17.50;99.90;;;;;;5092042;28;20031;-67
2022/05/19 03:54:37;;;;;;;49.85;33.10;;;17.50;99.90;;;;;;5092046;28;20044;-67
2022/05/19 03:57:06;;;;;;;52.60;35.90;;;17.50;99.90;;;;;;5093035;28;20036;-67
2022/05/19 03:59:32;;;;;;;53.13;34.08;;;17.50;99.90;;;;;;5092541;28;20040;-67
2022/05/19 04:02:01;;;;;;;58.40;35.47;;;17.40;99.90;;;;;;5093015;28;20054;-67
2022/05/19 04:04:27;;;;;;;56.25;36.58;;;17.40;99.90;;;;;;5092910;28;20043;-67
2022/05/19 04:06:52;;;;;;;55.10;35.42;;;17.40;99.90;;;;;;5092837;28;20483;-67
2022/05/19 04:09:18;;;;;;;49.35;35.03;;;17.40;99.90;;;;;;5092301;28;20046;-67
2022/05/19 04:11:43;;;;;;;53.85;36.33;;;17.40;99.90;;;;;;5092844;28;20036;-67
2022/05/19 04:14:09;;;;;;;51.35;35.70;;;17.40;99.90;;;;;;5092781;28;20040;-67
2022/05/19 04:16:35;;;;;;;53.78;34.53;;;17.40;99.90;;;;;;5092761;28;20040;-67
2022/05/19 04:19:00;;;;;;;54.03;35.22;;;17.50;99.90;;;;;;5092257;28;20126;-67
2022/05/19 04:21:26;;;;;;;53.83;35.95;;;17.50;99.90;;;;;;5092396;28;20389;-67
2022/05/19 04:23:52;;;;;;;52.08;35.45;;;17.50;99.90;;;;;;5092339;28;20039;-67
2022/05/19 04:26:17;;;;;;;53.83;35.45;;;17.50;99.90;;;;;;5092586;28;20068;-67
2022/05/19 04:28:43;;;;;;;51.97;34.25;;;17.60;99.90;;;;;;5092180;28;20047;-67
2022/05/19 04:31:08;;;;;;;56.05;36.97;;;17.60;99.90;;;;;;5092361;28;20174;-67
2022/05/19 04:33:34;;;;;;;52.85;36.25;;;17.60;99.90;;;;;;5091120;28;20067;-67
2022/05/19 04:36:02;;;;;;;48.67;34.35;;;17.70;99.90;;;;;;5092156;28;20149;-67
2022/05/19 04:38:28;;;;;;;50.58;34.42;;;17.70;99.90;;;;;;5091853;28;20046;-67
2022/05/19 04:40:53;;;;;;;49.05;34.90;;;17.80;99.90;;;;;;5092394;28;20044;-67
2022/05/19 04:43:24;;;;;;;56.38;35.30;;;17.90;99.90;;;;;;5092264;28;20063;-67
2022/05/19 04:45:51;;;;;;;57.22;35.90;;;17.80;99.90;;;;;;5091004;28;20531;-67
2022/05/19 04:48:17;;;;;;;55.03;35.28;;;17.90;99.90;;;;;;5091916;28;20043;-68
2022/05/19 04:50:43;;;;;;;49.58;35.00;;;18.00;99.90;;;;;;5090373;28;20052;-67
2022/05/19 04:53:09;;;;;;;50.00;34.88;;;18.00;99.90;;;;;;5091762;28;20051;-67
2022/05/19 04:55:36;;;;;;;49.60;34.08;;;18.00;99.90;;;;;;5092030;28;20032;-67
2022/05/19 04:58:01;;;;;;;51.28;34.95;;;18.10;99.90;;;;;;5090829;28;20054;-67
2022/05/19 05:00:27;;;;;;;55.65;35.40;;;18.10;99.90;;;;;;5091462;28;20110;-67
2022/05/19 05:02:52;;;;;;;52.15;37.03;;;18.00;99.90;;;;;;5090463;28;20478;-67
2022/05/19 05:05:18;;;;;;;48.85;34.58;;;18.10;99.90;;;;;;5090402;28;20040;-67
2022/05/19 05:07:43;;;;;;;47.38;33.95;;;18.10;99.90;;;;;;5091542;28;20040;-67
2022/05/19 05:10:10;;;;;;;48.80;34.75;;;18.20;99.90;;;;;;5091344;28;20050;-67
2022/05/19 05:12:35;;;;;;;51.70;32.63;;;18.20;99.90;;;;;;5091726;28;20044;-67
2022/05/19 05:15:01;;;;;;;48.60;33.08;;;18.30;99.90;;;;;;5091454;28;20032;-67
2022/05/19 05:17:27;;;;;;;48.90;33.53;;;18.40;99.90;;;;;;5091579;28;20142;-67
2022/05/19 05:19:52;;;;;;;47.72;33.25;;;18.70;99.90;;;;;;5091150;28;20032;-67
2022/05/19 05:22:18;;;;;;;50.10;31.25;;;18.70;99.90;;;;;;5091423;28;20121;-67
2022/05/19 05:24:43;;;;;;;47.17;32.53;;;18.90;99.90;;;;;;5091592;28;20043;-67
2022/05/19 05:27:09;;;;;;;45.60;30.45;;;19.00;99.90;;;;;;5091472;28;20039;-67
2022/05/19 05:29:35;;;;;;;42.08;29.73;;;19.10;99.90;;;;;;5091049;28;20065;-68
2022/05/19 05:32:01;;;;;;;42.97;28.88;;;19.30;99.90;;;;;;5091232;28;20530;-66
2022/05/19 05:34:27;;;;;;;38.28;27.17;;;19.40;99.90;;;;;;5090790;28;20042;-68
2022/05/19 05:36:52;;;;;;;43.30;27.65;;;19.40;99.90;;;;;;5091033;28;20032;-67
2022/05/19 05:39:18;;;;;;;39.33;27.40;;;19.40;99.90;;;;;;5090703;28;20032;-67
2022/05/19 05:41:44;;;;;;;35.67;26.40;;;19.40;99.90;;;;;;5091208;28;20066;-67
2022/05/19 05:44:10;;;;;;;41.70;27.27;;;19.40;99.90;;;;;;5090962;28;20515;-67
2022/05/19 05:46:36;;;;;;;36.85;25.95;;;19.50;99.90;;;;;;5091088;28;20090;-67
2022/05/19 05:49:02;;;;;;;36.75;25.55;;;19.60;99.90;;;;;;5090659;28;20036;-67
2022/05/19 05:51:28;;;;;;;34.08;24.55;;;19.80;99.90;;;;;;5090850;28;20097;-67
2022/05/19 05:53:53;;;;;;;35.42;23.50;;;20.00;99.90;;;;;;5089681;28;20035;-67
2022/05/19 05:56:21;;;;;;;33.78;23.77;;;20.20;99.90;;;;;;5091118;28;20442;-67
2022/05/19 05:58:46;;;;;;;32.38;22.00;;;20.30;99.90;;;;;;5090710;28;20043;-67
2022/05/19 06:01:14;;;;;;;29.63;20.02;;;20.50;99.90;;;;;;5090789;28;20516;-67
2022/05/19 06:03:40;;;;;;;29.17;19.52;;;20.60;99.90;;;;;;5090860;28;20447;-67
2022/05/19 06:06:06;;;;;;;29.02;19.88;;;20.60;99.90;;;;;;5090688;28;20059;-67
2022/05/19 06:08:33;;;;;;;28.08;18.48;;;20.70;99.90;;;;;;5090619;28;20044;-68
2022/05/19 06:11:01;;;;;;;29.15;17.90;;;20.80;99.90;;;;;;5090826;28;20119;-67
2022/05/19 06:13:27;;;;;;;28.73;17.05;;;20.80;99.90;;;;;;5090903;28;20032;-67
2022/05/19 06:15:53;;;;;;;20.77;15.52;;;20.90;99.90;;;;;;5090807;28;20036;-67
2022/05/19 06:18:19;;;;;;;23.98;15.70;;;20.80;99.90;;;;;;5090620;28;20036;-67
2022/05/19 06:20:46;;;;;;;19.42;13.23;;;20.80;99.90;;;;;;5090432;28;20138;-67
2022/05/19 06:23:12;;;;;;;18.90;13.88;;;20.90;99.90;;;;;;5090634;28;20492;-67
2022/05/19 06:25:38;;;;;;;17.30;11.55;;;21.00;99.90;;;;;;5090822;28;20046;-68
2022/05/19 06:28:04;;;;;;;13.80;9.52;;;21.00;99.90;;;;;;5090527;28;20036;-67
2022/05/19 06:30:30;;;;;;;12.60;8.05;;;21.10;99.90;;;;;;5090279;28;20125;-68
2022/05/19 06:32:57;;;;;;;11.57;8.13;;;21.20;99.90;;;;;;5090575;28;20043;-67
2022/05/19 06:35:27;;;;;;;10.85;7.68;;;21.20;99.90;;;;;;5090526;28;20059;-68
2022/05/19 06:37:53;;;;;;;12.30;7.47;;;21.20;99.90;;;;;;5090951;28;20071;-68
2022/05/19 06:40:19;;;;;;;11.68;6.32;;;21.40;99.90;;;;;;5090401;28;20036;-67
2022/05/19 06:42:46;;;;;;;10.70;6.50;;;21.40;99.90;;;;;;5090631;28;20044;-67
2022/05/19 06:45:16;;;;;;;9.45;5.95;;;21.60;99.90;;;;;;5091937;28;20035;-67
2022/05/19 06:47:41;;;;;;;10.50;5.65;;;21.60;99.90;;;;;;5094297;28;20051;-67
2022/05/19 06:50:10;;;;;;;7.93;5.75;;;21.70;99.90;;;;;;5094070;28;20488;-68
2022/05/19 06:52:43;;;;;;;10.02;5.97;;;21.80;99.90;;;;;;5094412;28;20063;-68
2022/05/19 06:55:10;;;;;;;8.32;5.40;;;21.80;99.90;;;;;;5094268;28;20469;-67
2022/05/19 06:57:35;;;;;;;7.90;5.93;;;21.80;99.90;;;;;;5093141;28;20378;-67
2022/05/19 07:00:01;;;;;;;7.63;5.78;;;21.80;99.90;;;;;;5093619;28;20089;-67
2022/05/19 07:02:27;;;;;;;11.27;5.85;;;21.80;99.90;;;;;;5094018;28;20060;-67
2022/05/19 07:04:53;;;;;;;10.23;6.32;;;21.80;99.90;;;;;;5093963;28;20381;-67
2022/05/19 07:07:18;;;;;;;8.57;6.13;;;21.80;99.90;;;;;;5094153;28;20052;-67
2022/05/19 07:09:44;;;;;;;10.05;5.95;;;21.80;99.90;;;;;;5093678;28;20043;-67
2022/05/19 07:12:11;;;;;;;10.05;5.60;;;21.80;99.90;;;;;;5093990;28;20785;-67
2022/05/19 07:14:38;;;;;;;9.15;5.13;;;21.70;99.90;;;;;;5093890;28;20044;-67
2022/05/19 07:17:04;;;;;;;9.75;5.53;;;21.80;99.90;;;;;;5094079;28;20039;-68
2022/05/19 07:22:18;;;;;;;7.68;5.10;;;21.80;99.90;;;;;;5093946;28;20040;-68
2022/05/19 07:24:43;;;;;;;7.18;5.68;;;21.80;99.90;;;;;;5093737;28;20036;-67
2022/05/19 07:27:09;;;;;;;9.00;4.97;;;21.80;99.90;;;;;;5094063;28;20439;-67
2022/05/19 07:29:35;;;;;;;7.13;5.18;;;21.80;99.90;;;;;;5093549;28;20079;-68
2022/05/19 07:32:01;;;;;;;10.02;5.15;;;21.80;99.90;;;;;;5093626;28;20510;-68
2022/05/19 07:34:29;;;;;;;7.68;4.97;;;21.70;99.90;;;;;;5094030;28;20027;-68
2022/05/19 07:36:57;;;;;;;11.40;5.38;;;21.70;99.90;;;;;;5093974;28;20114;-67
2022/05/19 07:39:24;;;;;;;8.68;5.10;;;21.70;99.90;;;;;;5093248;28;20423;-67
2022/05/19 07:41:51;;;;;;;8.35;5.15;;;21.70;99.90;;;;;;5093276;28;20386;-67
2022/05/19 07:44:17;;;;;;;8.15;5.25;;;21.70;99.90;;;;;;5091979;28;20083;-67
2022/05/19 07:46:43;;;;;;;13.40;5.45;;;21.70;99.90;;;;;;5075038;28;20040;-67
2022/05/19 07:49:08;;;;;;;8.90;5.15;;;21.70;99.90;;;;;;5093051;28;20048;-67
2022/05/19 07:51:39;;;;;;;9.55;5.53;;;21.60;99.90;;;;;;5093221;28;20032;-68
2022/05/19 07:54:18;;;;;;;11.23;6.10;;;21.50;99.90;;;;;;5093325;28;20093;-67
2022/05/19 07:56:44;;;;;;;9.85;6.45;;;21.40;99.90;;;;;;5093021;28;20042;-67
2022/05/19 07:59:10;;;;;;;12.52;7.03;;;21.40;99.90;;;;;;5091277;28;20089;-67
2022/05/19 08:01:37;;;;;;;15.73;6.95;;;21.30;99.90;;;;;;5092163;28;20610;-67
2022/05/19 08:04:03;;;;;;;14.68;7.40;;;21.20;99.90;;;;;;5093001;28;20039;-68
2022/05/19 08:06:29;;;;;;;14.68;7.70;;;21.30;99.90;;;;;;5092836;28;20036;-67
2022/05/19 08:08:58;;;;;;;11.32;8.07;;;21.20;99.90;;;;;;5092375;28;20039;-67
2022/05/19 08:11:24;;;;;;;11.65;7.97;;;21.20;99.90;;;;;;5092932;28;20048;-67
2022/05/19 08:16:35;;;;;;;11.98;7.82;;;21.10;99.90;;;;;;5092770;28;20044;-67
2022/05/19 08:19:01;;;;;;;15.05;8.20;;;21.00;99.90;;;;;;5092302;28;20477;-67
2022/05/19 08:21:27;;;;;;;14.07;8.07;;;20.90;99.90;;;;;;5092575;28;20064;-68
2022/05/19 08:23:53;;;;;;;12.88;8.50;;;20.90;99.90;;;;;;5092775;28;20062;-67
2022/05/19 08:26:19;;;;;;;13.63;9.13;;;20.90;99.90;;;;;;5092419;28;20416;-67
2022/05/19 08:28:48;;;;;;;15.63;8.68;;;20.90;99.90;;;;;;5092200;28;20102;-67
2022/05/19 08:31:20;;;;;;;16.55;9.80;;;20.90;99.90;;;;;;5092371;28;20044;-67
2022/05/19 08:33:47;;;;;;;14.68;10.70;;;21.00;99.90;;;;;;5091154;28;20035;-67
2022/05/19 08:36:13;;;;;;;16.80;10.93;;;20.90;99.90;;;;;;5092493;28;20052;-66
2022/05/19 08:38:40;;;;;;;18.98;11.52;;;20.90;99.90;;;;;;5090701;28;20048;-67
2022/05/19 08:41:08;;;;;;;18.80;13.23;;;21.00;99.90;;;;;;5092389;28;20150;-67
2022/05/19 08:43:48;;;;;;;17.52;12.55;;;21.10;99.90;;;;;;5092291;28;20435;-67
2022/05/19 08:46:38;;;;;;;17.80;12.27;;;21.10;99.90;;;;;;5092191;28;20129;-67
2022/05/19 08:49:27;;;;;;;20.60;12.68;;;21.10;99.90;;;;;;5092096;28;20498;-68
2022/05/19 08:52:11;;;;;;;19.50;13.07;;;21.10;99.90;;;;;;5077610;28;20083;-67
2022/05/19 08:54:40;;;;;;;21.73;12.13;;;21.20;99.90;;;;;;5092121;28;20040;-67
2022/05/19 08:57:21;;;;;;;19.48;12.70;;;21.20;99.90;;;;;;5092228;28;20067;-67
2022/05/19 09:00:05;;;;;;;13.77;11.90;;;21.20;99.90;;;;;;5091351;28;20519;-67
2022/05/19 09:02:40;;;;;;;18.30;11.00;;;21.30;99.90;;;;;;5091921;28;20071;-67
2022/05/19 09:05:12;;;;;;;16.30;10.85;;;21.20;99.90;;;;;;5091735;28;20114;-67
2022/05/19 09:07:59;;;;;;;12.50;10.48;;;21.20;99.90;;;;;;5091309;28;20491;-67
2022/05/19 09:10:52;;;;;;;18.50;12.32;;;21.30;99.90;;;;;;5091409;28;20460;-67
2022/05/19 09:13:41;;;;;;;16.77;12.30;;;21.30;99.90;;;;;;5091640;28;20036;-67
2022/05/19 09:16:19;;;;;;;16.05;11.77;;;21.40;99.90;;;;;;5091834;28;20459;-68
2022/05/19 09:19:07;;;;;;;16.85;12.23;;;21.50;99.90;;;;;;5091169;28;20051;-67
2022/05/19 09:21:38;;;;;;;17.85;12.02;;;21.40;99.90;;;;;;5080844;28;20083;-68
2022/05/19 09:24:05;;;;;;;16.90;10.02;;;21.40;99.90;;;;;;5090193;28;20107;-67
2022/05/19 09:26:53;;;;;;;14.70;10.10;;;21.50;99.90;;;;;;5091628;28;20124;-67
2022/05/19 09:29:43;;;;;;;12.55;8.60;;;21.60;99.90;;;;;;5090978;28;20051;-68
2022/05/19 09:32:17;;;;;;;16.75;11.02;;;21.70;99.90;;;;;;5091126;28;20093;-68
2022/05/19 09:34:46;;;;;;;15.43;9.50;;;21.70;99.90;;;;;;5091064;28;20043;-67
2022/05/19 09:37:14;;;;;;;11.80;9.20;;;21.70;99.90;;;;;;5091350;28;20032;-67
2022/05/19 09:39:50;;;;;;;11.02;9.20;;;21.80;99.90;;;;;;5090843;28;20036;-67
2022/05/19 09:42:20;;;;;;;14.95;10.60;;;21.90;99.90;;;;;;5091211;28;20067;-68
2022/05/19 09:44:55;;;;;;;14.32;10.13;;;22.00;99.90;;;;;;5091099;28;20499;-67
2022/05/19 09:47:35;;;;;;;11.38;10.00;;;22.10;99.90;;;;;;5091284;28;20059;-68
2022/05/19 09:50:13;;;;;;;15.85;10.10;;;22.10;99.90;;;;;;5090755;28;20081;-67
2022/05/19 09:52:42;;;;;;;15.20;10.05;;;22.20;99.90;;;;;;5091011;28;20076;-67
2022/05/19 09:55:09;;;;;;;16.98;11.73;;;22.30;99.90;;;;;;5090928;28;20119;-68
2022/05/19 09:57:52;;;;;;;17.73;12.65;;;22.40;99.90;;;;;;5091246;28;20153;-67
2022/05/19 10:00:36;;;;;;;15.35;10.95;;;22.50;99.90;;;;;;5090915;28;20036;-68
2022/05/19 10:03:08;;;;;;;14.30;11.30;;;22.50;99.90;;;;;;5091066;28;20122;-67
2022/05/19 10:05:45;;;;;;;13.13;10.82;;;22.60;99.90;;;;;;5090983;28;20085;-68
2022/05/19 10:08:24;;;;;;;18.13;10.45;;;22.60;99.90;;;;;;5090788;28;20537;-67
2022/05/19 10:11:05;;;;;;;16.38;10.55;;;22.70;99.90;;;;;;5090649;28;20079;-68
2022/05/19 10:13:55;;;;;;;16.83;11.47;;;22.80;99.90;;;;;;5090812;28;20071;-67
2022/05/19 10:16:33;;;;;;;12.27;9.15;;;22.90;99.90;;;;;;5091024;28;20107;-67
2022/05/19 10:19:36;;;;;;;13.00;7.70;;;22.90;99.90;;;;;;5091471;28;20036;-68
2022/05/19 10:22:31;;;;;;;9.52;7.28;;;22.90;99.90;;;;;;5094880;28;20055;-67
2022/05/19 10:25:17;;;;;;;12.20;7.70;;;23.00;99.90;;;;;;5095086;28;20427;-68
2022/05/19 10:31:04;;;;;;;11.98;5.95;;;23.10;99.90;;;;;;5094877;28;20079;-67
2022/05/19 10:33:49;;;;;;;6.90;5.80;;;23.20;99.90;;;;;;5094913;28;20036;-67
2022/05/19 10:36:25;;;;;;;14.02;6.35;;;23.30;99.90;;;;;;5094630;28;20043;-68
2022/05/19 10:39:09;;;;;;;13.68;6.57;;;23.30;99.90;;;;;;5094220;28;20047;-68
2022/05/19 10:42:25;;;;;;;12.20;6.78;;;23.30;99.90;;;;;;5094500;28;20499;-68
2022/05/19 10:44:59;;;;;;;10.13;6.72;;;23.30;99.90;;;;;;5031872;28;20076;-68
2022/05/19 10:47:51;;;;;;;14.68;7.10;;;23.40;99.90;;;;;;5031908;28;20521;-67
2022/05/19 10:50:38;;;;;;;14.68;9.02;;;23.50;99.90;;;;;;5031377;28;20057;-67
2022/05/19 10:53:06;;;;;;;14.93;10.52;;;23.60;99.90;;;;;;5031666;28;20046;-67
2022/05/19 10:55:35;;;;;;;11.25;9.52;;;23.70;99.90;;;;;;5014985;28;20050;-67
2022/05/19 10:58:07;;;;;;;14.95;9.88;;;23.60;99.90;;;;;;5031559;28;20723;-68
2022/05/19 11:00:32;;;;;;;;;;;23.70;99.90;;;;;;5031566;28;20056;-67
2022/05/19 11:03:28;;;;;;;10.52;6.75;;;24.00;99.90;;;;;;5031441;28;20066;-67
2022/05/19 11:06:08;;;;;;;9.65;7.20;;;24.10;99.90;;;;;;5031321;28;20091;-68
2022/05/19 11:08:55;;;;;;;8.20;5.78;;;24.20;99.90;;;;;;5030981;28;20490;-67
2022/05/19 11:11:34;;;;;;;5.75;4.43;;;24.40;99.90;;;;;;5031210;28;20045;-68
2022/05/19 11:14:17;;;;;;;6.90;4.30;;;24.40;99.90;;;;;;5031292;28;20034;-67
2022/05/19 11:17:05;;;;;;;7.53;4.55;;;24.60;99.90;;;;;;5094134;28;20044;-67
2022/05/19 11:19:38;;;;;;;7.15;5.72;;;24.60;99.90;;;;;;5093624;28;20048;-67
2022/05/19 11:22:16;;;;;;;10.85;6.40;;;24.60;99.90;;;;;;5093919;28;20066;-68
2022/05/19 11:27:50;;;;;;;9.10;6.03;;;24.90;99.90;;;;;;5093901;28;20412;-68
2022/05/19 11:30:20;;;;;;;6.35;4.70;;;24.80;99.90;;;;;;5091334;28;20098;-68
2022/05/19 11:32:56;;;;;;;6.88;5.10;;;24.80;99.90;;;;;;5093684;28;20450;-68
2022/05/19 11:35:39;;;;;;;5.15;3.85;;;25.00;99.90;;;;;;5093411;28;20065;-68
2022/05/19 11:38:25;;;;;;;12.38;5.10;;;25.00;99.90;;;;;;5093682;28;20039;-68
2022/05/19 11:41:00;;;;;;;7.82;4.05;;;25.10;99.90;;;;;;5093428;28;20051;-67
2022/05/19 11:44:10;;;;;;;5.95;3.88;;;25.30;99.90;;;;;;5093331;28;20040;-68
2022/05/19 11:47:08;;;;;;;8.32;4.30;;;25.50;99.90;;;;;;5093496;28;20127;-68
2022/05/19 11:55:42;;;;;;;7.43;4.50;;;25.50;99.90;;;;;;5093252;28;20044;-67
2022/05/19 11:58:23;;;;;;;7.35;4.60;;;25.60;99.90;;;;;;5093072;28;20114;-68
2022/05/19 12:00:56;;;;;;;5.25;3.95;;;25.60;99.90;;;;;;5092764;28;20044;-68
2022/05/19 12:03:38;;;;;;;6.18;5.28;;;25.50;99.90;;;;;;5093008;28;20076;-67
2022/05/19 12:06:12;;;;;;;7.43;3.70;;;25.50;99.90;;;;;;5093111;28;20040;-67
2022/05/19 12:08:54;;;;;;;5.07;3.60;;;25.50;99.90;;;;;;5092518;28;20052;-67
2022/05/19 12:11:30;;;;;;;8.15;4.30;;;25.60;99.90;;;;;;5093032;28;20044;-67
2022/05/19 12:14:10;;;;;;;4.80;3.92;;;25.60;99.90;;;;;;5093001;28;20770;-68
2022/05/19 12:16:46;;;;;;;6.45;3.83;;;25.60;99.90;;;;;;5092791;28;20079;-68
2022/05/19 12:19:36;;;;;;;5.43;3.92;;;25.60;99.90;;;;;;5092244;28;20051;-68
2022/05/19 12:22:36;;;;;;;5.55;3.72;;;25.60;99.90;;;;;;5092652;28;20557;-68
2022/05/19 12:25:07;;;;;;;4.10;3.70;;;25.60;99.90;;;;;;5092492;28;20400;-68
2022/05/19 12:27:43;;;;;;;6.05;3.25;;;25.60;99.90;;;;;;5092705;28;20408;-68
2022/05/19 12:33:24;;;;;;;3.28;2.53;;;25.60;99.90;;;;;;5091143;28;20048;-67
2022/05/19 12:35:54;;;;;;;3.10;2.63;;;25.60;99.90;;;;;;5092591;28;20101;-68
2022/05/19 12:38:33;;;;;;;10.75;3.03;;;25.60;99.90;;;;;;5092164;28;20127;-68
2022/05/19 12:41:04;;;;;;;5.57;3.63;;;25.60;99.90;;;;;;5092391;28;20039;-67
2022/05/19 12:43:40;;;;;;;6.35;2.50;;;25.50;99.90;;;;;;5091181;28;20040;-68
2022/05/19 12:46:30;;;;;;;5.43;2.47;;;25.50;99.90;;;;;;5092150;28;20498;-67
2022/05/19 12:49:18;;;;;;;6.18;2.80;;;25.50;99.90;;;;;;5050745;28;20048;-68
2022/05/19 12:51:59;;;;;;;5.85;2.80;;;25.50;99.90;;;;;;5092009;28;20078;-68
2022/05/19 12:54:27;;;;;;;4.25;3.42;;;25.40;99.90;;;;;;5091922;28;20040;-67
2022/05/19 12:56:59;;;;;;;6.25;2.70;;;25.40;99.90;;;;;;5090920;28;20384;-67
2022/05/19 13:00:03;;;;;;;6.15;2.50;;;25.30;99.90;;;;;;5091604;28;20404;-68
2022/05/19 13:02:35;;;;;;;2.67;2.28;;;25.30;99.90;;;;;;5091848;28;20048;-68
2022/05/19 13:05:12;;;;;;;;;;;25.20;99.90;;;;;;5092455;28;20052;-73
2022/05/19 13:07:42;;;;;;;21.73;5.10;;;25.00;99.90;;;;;;5092142;28;19931;-73
2022/05/19 13:10:17;;;;;;;15.48;5.05;;;24.70;99.90;;;;;;5091522;28;20044;-71
2022/05/19 13:13:14;;;;;;;11.82;5.18;;;24.10;99.90;;;;;;5091851;28;20071;-73
2022/05/19 13:15:54;;;;;;;15.38;5.68;;;23.50;99.90;;;;;;5091882;28;20039;-74
2022/05/19 13:18:25;;;;;;;10.98;5.13;;;23.20;99.90;;;;;;5090444;28;20076;-73